Time;durP1;ratioP1;P1;durP2;ratioP2;P2;SDS_P1;SDS_P2;PMS_P1;PMS_P2;Temp;Humidity;BMP_temperature;BMP_pressure;BME280_temperature;BME280_humidity;BME280_pressure;Samples;Min_cycle;Max_cycle;Signal;HPM_P1;HPM_P2
2022/01/07 00:01:39;;;;;;;19.53;8.00;;;3.40;99.90;;;;;;5075904;28;20032;-87
2022/01/07 00:04:06;;;;;;;19.50;8.00;;;3.50;99.90;;;;;;5069594;28;20514;-87
2022/01/07 00:06:32;;;;;;;19.50;7.10;;;3.50;99.90;;;;;;5081577;28;20941;-87
2022/01/07 00:08:57;;;;;;;16.23;7.33;;;3.50;99.90;;;;;;5116373;28;20046;-87
2022/01/07 00:11:23;;;;;;;18.40;8.17;;;3.50;99.90;;;;;;5086771;28;20036;-86
2022/01/07 00:13:49;;;;;;;17.33;8.57;;;3.60;99.90;;;;;;5099700;28;20077;-88
2022/01/07 00:16:16;;;;;;;17.27;8.63;;;3.50;99.90;;;;;;5105073;28;20067;-87
2022/01/07 00:18:44;;;;;;;18.43;6.90;;;3.50;99.90;;;;;;5095304;28;20043;-87
2022/01/07 00:21:10;;;;;;;17.13;6.80;;;3.50;99.90;;;;;;5108379;28;20119;-86
2022/01/07 00:23:36;;;;;;;16.40;7.60;;;3.50;99.90;;;;;;5103447;28;20051;-87
2022/01/07 00:26:03;;;;;;;17.97;7.30;;;3.50;99.90;;;;;;5089871;28;20612;-86
2022/01/07 00:28:29;;;;;;;15.57;7.17;;;3.50;99.90;;;;;;5094712;28;20047;-86
2022/01/07 00:30:55;;;;;;;19.90;6.97;;;3.50;99.90;;;;;;5092758;28;20040;-86
2022/01/07 00:33:21;;;;;;;17.37;7.20;;;3.50;99.90;;;;;;5088332;28;20052;-86
2022/01/07 00:35:47;;;;;;;15.93;6.93;;;3.50;99.90;;;;;;5110133;27;20113;-86
2022/01/07 00:38:13;;;;;;;13.80;6.87;;;3.50;99.90;;;;;;5098853;27;20119;-87
2022/01/07 00:40:39;;;;;;;18.73;7.23;;;3.50;99.90;;;;;;5076640;27;20075;-86
2022/01/07 00:43:05;;;;;;;11.07;6.13;;;3.60;99.90;;;;;;5117946;27;20115;-86
2022/01/07 00:45:32;;;;;;;16.90;6.13;;;3.50;99.90;;;;;;5099946;27;20065;-87
2022/01/07 00:47:58;;;;;;;15.10;6.83;;;3.60;99.90;;;;;;5099522;27;20046;-86
2022/01/07 00:50:28;;;;;;;13.13;6.27;;;3.50;99.90;;;;;;5089072;27;20765;-86
2022/01/07 00:52:54;;;;;;;14.13;6.57;;;3.50;99.90;;;;;;5091686;27;20066;-86
2022/01/07 00:55:21;;;;;;;13.90;6.20;;;3.50;99.90;;;;;;5112482;28;20140;-86
2022/01/07 00:57:47;;;;;;;15.07;6.50;;;3.50;99.90;;;;;;5085270;28;20052;-87
2022/01/07 01:00:16;;;;;;;17.00;6.97;;;3.50;99.90;;;;;;5112526;27;20050;-88
2022/01/07 01:02:42;;;;;;;14.43;6.40;;;3.50;99.90;;;;;;5105928;27;20079;-86
2022/01/07 01:05:11;;;;;;;20.73;6.63;;;3.50;99.90;;;;;;5114074;27;20055;-86
2022/01/07 01:07:37;;;;;;;14.37;6.73;;;3.40;99.90;;;;;;5088171;27;20051;-86
2022/01/07 01:10:07;;;;;;;13.07;6.83;;;3.40;99.90;;;;;;5081879;28;20147;-87
2022/01/07 01:12:37;;;;;;;15.67;7.27;;;3.30;99.90;;;;;;5094129;27;20061;-87
2022/01/07 01:15:08;;;;;;;16.87;6.83;;;3.30;99.90;;;;;;5093776;27;20039;-87
2022/01/07 01:17:34;;;;;;;16.43;6.50;;;3.20;99.90;;;;;;5114286;28;20066;-87
2022/01/07 01:20:01;;;;;;;13.37;6.80;;;3.20;99.90;;;;;;5089723;27;20043;-87
2022/01/07 01:22:26;;;;;;;15.13;7.20;;;3.20;99.90;;;;;;5089093;27;20528;-88
2022/01/07 01:24:52;;;;;;;17.33;7.13;;;3.10;99.90;;;;;;5110875;28;20061;-86
2022/01/07 01:27:18;;;;;;;17.70;7.13;;;3.10;99.90;;;;;;5059849;27;20043;-87
2022/01/07 01:29:44;;;;;;;16.10;7.03;;;3.00;99.90;;;;;;5067079;27;20051;-86
2022/01/07 01:32:09;;;;;;;18.40;7.53;;;3.00;99.90;;;;;;5098283;28;20070;-87
2022/01/07 01:34:35;;;;;;;16.07;7.10;;;3.00;99.90;;;;;;5094071;27;20047;-88
2022/01/07 01:37:01;;;;;;;17.50;7.20;;;3.00;99.90;;;;;;5099591;27;20047;-86
2022/01/07 01:39:27;;;;;;;20.70;8.37;;;2.90;99.90;;;;;;5108562;27;20051;-87
2022/01/07 01:41:53;;;;;;;20.30;8.30;;;2.90;99.90;;;;;;5093442;27;20054;-86
2022/01/07 01:44:18;;;;;;;18.97;7.30;;;2.90;99.90;;;;;;5091312;28;20047;-88
2022/01/07 01:46:44;;;;;;;15.00;7.57;;;2.90;99.90;;;;;;5111270;27;20047;-88
2022/01/07 01:49:10;;;;;;;18.40;8.17;;;2.90;99.90;;;;;;5108742;27;20039;-87
2022/01/07 01:51:36;;;;;;;15.10;7.63;;;2.90;99.90;;;;;;5096087;27;20043;-86
2022/01/07 01:54:03;;;;;;;17.63;7.87;;;2.80;99.90;;;;;;5117053;27;20064;-87
2022/01/07 01:56:29;;;;;;;16.53;7.87;;;2.80;99.90;;;;;;5115631;27;20066;-86
2022/01/07 01:58:55;;;;;;;15.63;7.43;;;2.80;99.90;;;;;;5111409;27;20051;-87
2022/01/07 02:01:21;;;;;;;19.17;7.90;;;2.80;99.90;;;;;;5080199;27;20048;-87
2022/01/07 02:03:47;;;;;;;14.60;8.47;;;2.80;99.90;;;;;;5115281;27;20039;-88
2022/01/07 02:06:15;;;;;;;14.87;7.73;;;2.80;99.90;;;;;;5080005;27;20040;-88
2022/01/07 02:08:41;;;;;;;15.00;8.23;;;2.70;99.90;;;;;;5092547;27;20039;-88
2022/01/07 02:11:06;;;;;;;16.40;7.77;;;2.80;99.90;;;;;;5098433;27;20140;-87
2022/01/07 02:13:32;;;;;;;16.07;8.90;;;2.70;99.90;;;;;;5099525;27;20046;-87
2022/01/07 02:15:58;;;;;;;18.57;8.83;;;2.80;99.90;;;;;;5083390;27;20046;-87
2022/01/07 02:18:24;;;;;;;21.30;8.70;;;2.70;99.90;;;;;;5088678;28;20032;-86
2022/01/07 02:20:50;;;;;;;18.40;8.83;;;2.70;99.90;;;;;;5099279;27;20049;-87
2022/01/07 02:23:18;;;;;;;16.90;8.97;;;2.70;99.90;;;;;;5100154;28;20054;-86
2022/01/07 02:25:45;;;;;;;17.40;8.90;;;2.70;99.90;;;;;;5097423;28;20517;-86
2022/01/07 02:28:12;;;;;;;19.60;9.40;;;2.70;99.90;;;;;;5114822;27;20525;-86
2022/01/07 02:30:38;;;;;;;19.83;9.50;;;2.70;99.90;;;;;;5093931;28;20696;-86
2022/01/07 02:33:04;;;;;;;17.67;9.00;;;2.70;99.90;;;;;;5096211;28;20039;-85
2022/01/07 02:35:33;;;;;;;18.77;9.70;;;2.70;99.90;;;;;;5099939;28;20038;-83
2022/01/07 02:37:59;;;;;;;19.57;9.97;;;2.70;99.90;;;;;;5114853;28;20587;-87
2022/01/07 02:40:25;;;;;;;18.63;9.57;;;2.70;99.90;;;;;;5087922;28;20044;-87
2022/01/07 02:42:52;;;;;;;15.87;9.20;;;2.70;99.90;;;;;;5077713;28;20043;-86
2022/01/07 02:45:18;;;;;;;20.60;10.97;;;2.70;99.90;;;;;;5097035;28;20860;-87
2022/01/07 02:47:50;;;;;;;18.37;9.87;;;2.70;99.90;;;;;;5116098;28;20047;-87
2022/01/07 02:50:28;;;;;;;19.50;10.23;;;2.70;99.90;;;;;;5114621;28;20043;-87
2022/01/07 02:52:55;;;;;;;19.13;10.13;;;2.70;99.90;;;;;;5099103;28;20050;-87
2022/01/07 02:55:23;;;;;;;21.73;11.07;;;2.60;99.90;;;;;;5099001;28;20050;-88
2022/01/07 02:57:49;;;;;;;24.37;11.07;;;2.60;99.90;;;;;;5096805;28;20043;-86
2022/01/07 03:00:19;;;;;;;19.60;10.63;;;2.60;99.90;;;;;;5083162;28;20074;-87
2022/01/07 03:02:46;;;;;;;18.30;10.30;;;2.60;99.90;;;;;;5117423;27;20402;-86
2022/01/07 03:05:13;;;;;;;21.60;10.53;;;2.60;99.90;;;;;;5117523;27;20050;-86
2022/01/07 03:07:39;;;;;;;20.47;10.60;;;2.70;99.90;;;;;;5119114;27;20587;-87
2022/01/07 03:10:07;;;;;;;19.17;11.07;;;2.60;99.90;;;;;;5119393;27;20553;-86
2022/01/07 03:12:32;;;;;;;19.53;10.90;;;2.60;99.90;;;;;;5095175;27;20110;-88
2022/01/07 03:14:58;;;;;;;20.60;11.53;;;2.60;99.90;;;;;;5102978;27;20093;-88
2022/01/07 03:17:24;;;;;;;22.83;11.57;;;2.60;99.90;;;;;;5116890;27;20787;-87
2022/01/07 03:19:50;;;;;;;19.27;11.10;;;2.60;99.90;;;;;;5117902;27;20044;-86
2022/01/07 03:22:16;;;;;;;20.47;11.13;;;2.60;99.90;;;;;;5120215;27;20106;-87
2022/01/07 03:24:41;;;;;;;21.10;11.00;;;2.60;99.90;;;;;;5119677;27;20047;-86
2022/01/07 03:27:07;;;;;;;19.00;11.10;;;2.60;99.90;;;;;;5101098;27;20047;-86
2022/01/07 03:29:34;;;;;;;22.33;12.17;;;2.60;99.90;;;;;;5100591;27;20043;-87
2022/01/07 03:31:59;;;;;;;20.43;12.07;;;2.60;99.90;;;;;;5117847;27;20043;-86
2022/01/07 03:34:26;;;;;;;21.80;11.67;;;2.70;99.90;;;;;;5099525;28;20069;-86
2022/01/07 03:36:51;;;;;;;18.93;12.07;;;2.60;99.90;;;;;;5122563;27;20057;-86
2022/01/07 03:39:17;;;;;;;19.30;11.43;;;2.70;99.90;;;;;;5119559;27;20110;-86
2022/01/07 03:41:44;;;;;;;16.83;11.20;;;2.70;99.90;;;;;;5118245;27;20465;-86
2022/01/07 03:44:10;;;;;;;19.87;12.23;;;2.60;99.90;;;;;;5084050;27;20031;-87
2022/01/07 03:46:36;;;;;;;17.20;11.40;;;2.60;99.90;;;;;;5117981;27;20041;-86
2022/01/07 03:49:03;;;;;;;20.80;11.83;;;2.70;99.90;;;;;;5084028;27;20453;-87
2022/01/07 03:51:28;;;;;;;16.10;11.37;;;2.70;99.90;;;;;;5110192;27;20051;-85
2022/01/07 03:53:54;;;;;;;20.77;12.33;;;2.70;99.90;;;;;;5102035;27;20039;-86
2022/01/07 03:56:20;;;;;;;18.03;11.23;;;2.70;99.90;;;;;;5101705;27;20047;-86
2022/01/07 03:58:47;;;;;;;20.33;11.20;;;2.70;99.90;;;;;;5101879;27;20088;-86
2022/01/07 04:01:13;;;;;;;19.43;11.53;;;2.70;99.90;;;;;;5107462;27;20039;-85
2022/01/07 04:03:38;;;;;;;22.10;12.17;;;2.70;99.90;;;;;;5116470;27;20084;-87
2022/01/07 04:06:04;;;;;;;17.70;11.87;;;2.70;99.90;;;;;;5100975;27;20069;-86
2022/01/07 04:08:30;;;;;;;21.03;12.13;;;2.70;99.90;;;;;;5116457;27;20035;-86
2022/01/07 04:10:56;;;;;;;20.93;11.70;;;2.80;99.90;;;;;;5083869;27;20059;-85
2022/01/07 04:13:21;;;;;;;20.43;12.17;;;2.70;99.90;;;;;;5099799;27;20035;-87
2022/01/07 04:15:47;;;;;;;22.30;11.93;;;2.70;99.90;;;;;;5117848;27;20039;-85
2022/01/07 04:18:13;;;;;;;19.37;11.60;;;2.80;99.90;;;;;;5101725;27;20100;-87
2022/01/07 04:20:39;;;;;;;18.47;11.67;;;2.80;99.90;;;;;;5101193;27;20452;-86
2022/01/07 04:23:06;;;;;;;22.07;11.30;;;2.80;99.90;;;;;;5109216;27;20059;-87
2022/01/07 04:25:33;;;;;;;18.77;12.07;;;2.80;99.90;;;;;;5102853;27;20039;-87
2022/01/07 04:28:02;;;;;;;18.93;11.10;;;2.80;99.90;;;;;;5117445;27;20064;-86
2022/01/07 04:30:31;;;;;;;19.37;11.77;;;2.80;99.90;;;;;;5101513;27;20042;-86
2022/01/07 04:32:57;;;;;;;18.33;10.77;;;2.80;99.90;;;;;;5101818;27;20113;-86
2022/01/07 04:35:24;;;;;;;20.63;12.03;;;2.80;99.90;;;;;;5116973;27;20099;-86
2022/01/07 04:37:50;;;;;;;15.93;11.07;;;2.80;99.90;;;;;;5080013;28;20052;-87
2022/01/07 04:40:17;;;;;;;19.77;11.30;;;2.80;99.90;;;;;;5097444;28;20043;-86
2022/01/07 04:42:43;;;;;;;17.50;10.97;;;2.80;99.90;;;;;;5103222;28;20040;-86
2022/01/07 04:45:11;;;;;;;19.07;11.17;;;2.80;99.90;;;;;;5086304;28;20047;-87
2022/01/07 04:47:37;;;;;;;17.90;10.77;;;2.80;99.90;;;;;;5114283;28;20031;-86
2022/01/07 04:50:09;;;;;;;19.83;10.97;;;2.80;99.90;;;;;;5096033;28;20055;-87
2022/01/07 04:52:35;;;;;;;18.20;11.83;;;2.90;99.90;;;;;;5109315;28;20040;-85
2022/01/07 04:55:01;;;;;;;20.03;10.70;;;2.90;99.90;;;;;;5103918;28;20078;-86
2022/01/07 04:57:27;;;;;;;18.63;11.30;;;2.90;99.90;;;;;;5107429;28;20081;-86
2022/01/07 04:59:53;;;;;;;14.27;9.93;;;2.90;99.90;;;;;;5094878;28;20044;-86
2022/01/07 05:02:22;;;;;;;18.87;10.93;;;2.90;99.90;;;;;;5113901;28;20467;-86
2022/01/07 05:04:48;;;;;;;16.83;11.00;;;2.90;99.90;;;;;;5098133;28;20036;-86
2022/01/07 05:07:15;;;;;;;17.27;10.43;;;2.90;99.90;;;;;;5112379;28;20055;-85
2022/01/07 05:09:42;;;;;;;18.50;10.43;;;2.90;99.90;;;;;;5097480;28;20104;-86
2022/01/07 05:12:08;;;;;;;16.43;10.73;;;2.90;99.90;;;;;;5111516;28;20044;-86
2022/01/07 05:14:34;;;;;;;19.27;10.70;;;2.90;99.90;;;;;;5097649;28;20608;-86
2022/01/07 05:16:59;;;;;;;17.77;10.67;;;2.90;99.90;;;;;;5112992;28;20071;-86
2022/01/07 05:19:25;;;;;;;20.10;11.30;;;2.90;99.90;;;;;;5113421;28;20119;-86
2022/01/07 05:21:51;;;;;;;20.17;10.83;;;2.90;99.90;;;;;;5094476;28;20899;-86
2022/01/07 05:24:17;;;;;;;16.20;10.70;;;2.90;99.90;;;;;;5097029;28;20059;-86
2022/01/07 05:26:42;;;;;;;17.10;9.87;;;2.90;99.90;;;;;;5095891;28;20078;-86
2022/01/07 05:29:08;;;;;;;15.37;10.20;;;3.00;99.90;;;;;;5112401;28;20048;-87
2022/01/07 05:31:34;;;;;;;15.47;10.27;;;2.90;99.90;;;;;;5110555;28;20055;-86
2022/01/07 05:34:00;;;;;;;17.27;10.63;;;2.90;99.90;;;;;;5092852;28;20052;-86
2022/01/07 05:36:26;;;;;;;17.53;10.37;;;3.00;99.90;;;;;;5086562;28;20058;-86
2022/01/07 05:38:52;;;;;;;14.57;10.43;;;2.90;99.90;;;;;;5093594;28;20043;-88
2022/01/07 05:41:19;;;;;;;14.90;9.80;;;2.90;99.90;;;;;;5110678;28;20050;-86
2022/01/07 05:43:45;;;;;;;14.33;10.00;;;3.00;99.90;;;;;;5111988;28;20071;-86
2022/01/07 05:46:14;;;;;;;13.93;9.40;;;3.00;99.90;;;;;;5094410;28;20055;-86
2022/01/07 05:48:41;;;;;;;13.87;9.27;;;3.00;99.90;;;;;;5079464;28;20057;-86
2022/01/07 05:51:07;;;;;;;12.03;9.13;;;3.00;99.90;;;;;;5096328;28;20133;-86
2022/01/07 05:53:33;;;;;;;13.83;9.57;;;3.00;99.90;;;;;;5080302;28;20055;-87
2022/01/07 05:55:59;;;;;;;16.73;9.70;;;3.00;99.90;;;;;;5095482;28;20116;-90
2022/01/07 05:58:25;;;;;;;16.20;9.77;;;3.00;99.90;;;;;;5095949;28;20541;-87
2022/01/07 06:00:50;;;;;;;14.67;9.53;;;3.00;99.90;;;;;;5075560;28;20051;-85
2022/01/07 06:03:16;;;;;;;13.97;9.67;;;3.00;99.90;;;;;;5096134;28;20059;-86
2022/01/07 06:05:42;;;;;;;14.43;9.80;;;3.00;99.90;;;;;;5092050;28;20047;-88
2022/01/07 06:08:09;;;;;;;11.90;8.70;;;3.00;99.90;;;;;;5076867;28;20165;-88
2022/01/07 06:10:35;;;;;;;14.10;9.43;;;3.00;99.90;;;;;;5078878;28;20530;-87
2022/01/07 06:13:01;;;;;;;12.60;8.57;;;3.10;99.90;;;;;;5093222;28;20129;-81
2022/01/07 06:15:26;;;;;;;13.50;9.30;;;3.00;99.90;;;;;;5060306;28;20107;-86
2022/01/07 06:17:52;;;;;;;14.37;8.40;;;3.00;99.90;;;;;;5112472;28;20039;-87
2022/01/07 06:20:19;;;;;;;14.40;9.03;;;3.00;99.90;;;;;;5093242;28;20051;-88
2022/01/07 06:22:45;;;;;;;14.10;8.90;;;3.10;99.90;;;;;;5076946;28;20047;-87
2022/01/07 06:25:11;;;;;;;14.87;9.07;;;3.10;99.90;;;;;;5079329;28;20116;-87
2022/01/07 06:27:38;;;;;;;10.93;8.60;;;3.00;99.90;;;;;;5078776;28;20089;-91
2022/01/07 06:30:06;;;;;;;12.37;8.07;;;3.10;99.90;;;;;;5076639;28;20046;-82
2022/01/07 06:32:31;;;;;;;15.03;8.83;;;3.00;99.90;;;;;;5075149;28;20043;-83
2022/01/07 06:34:57;;;;;;;12.77;8.33;;;3.10;99.90;;;;;;5078448;28;20042;-82
2022/01/07 06:37:23;;;;;;;13.97;8.90;;;3.10;99.90;;;;;;5097494;28;20055;-82
2022/01/07 06:39:49;;;;;;;12.90;8.60;;;3.10;99.90;;;;;;5083954;28;20043;-82
2022/01/07 06:42:14;;;;;;;16.93;9.37;;;3.10;99.90;;;;;;5118465;28;20047;-83
2022/01/07 06:44:41;;;;;;;14.27;8.90;;;3.10;99.90;;;;;;5098875;28;20506;-82
2022/01/07 06:47:06;;;;;;;13.87;9.07;;;3.10;99.90;;;;;;5115260;28;20039;-80
2022/01/07 06:49:32;;;;;;;11.23;8.57;;;3.10;99.90;;;;;;5084992;28;20043;-82
2022/01/07 06:51:58;;;;;;;15.47;9.40;;;3.20;99.90;;;;;;5117243;28;20055;-80
2022/01/07 06:54:25;;;;;;;14.70;9.87;;;3.10;99.90;;;;;;5084323;28;20039;-80
2022/01/07 06:56:50;;;;;;;12.73;8.70;;;3.10;99.90;;;;;;5119827;28;20079;-80
2022/01/07 06:59:16;;;;;;;14.40;9.07;;;3.20;99.90;;;;;;5100326;28;20039;-80
2022/01/07 07:01:43;;;;;;;11.57;9.00;;;3.20;99.90;;;;;;5116257;28;20093;-81
2022/01/07 07:04:09;;;;;;;13.00;8.80;;;3.20;99.90;;;;;;5118773;28;20048;-80
2022/01/07 07:06:35;;;;;;;14.40;9.37;;;3.20;99.90;;;;;;5103140;28;20044;-80
2022/01/07 07:09:02;;;;;;;12.83;8.77;;;3.20;99.90;;;;;;5083919;28;20050;-81
2022/01/07 07:11:28;;;;;;;12.50;8.47;;;3.20;99.90;;;;;;5100027;28;20090;-81
2022/01/07 07:13:54;;;;;;;16.50;9.70;;;3.30;99.90;;;;;;5101936;28;20051;-80
2022/01/07 07:16:20;;;;;;;19.33;9.73;;;3.20;99.90;;;;;;5116386;28;20052;-81
2022/01/07 07:18:46;;;;;;;13.60;8.97;;;3.20;99.90;;;;;;5099813;28;20048;-81
2022/01/07 07:21:12;;;;;;;13.10;9.83;;;3.20;99.90;;;;;;5085121;28;20082;-81
2022/01/07 07:23:38;;;;;;;14.87;9.57;;;3.30;99.90;;;;;;5082364;28;20122;-80
2022/01/07 07:26:04;;;;;;;11.30;9.03;;;3.30;99.90;;;;;;5081242;28;20118;-81
2022/01/07 07:28:30;;;;;;;16.80;10.03;;;3.30;99.90;;;;;;5094139;28;20055;-81
2022/01/07 07:30:59;;;;;;;13.80;9.63;;;3.30;99.90;;;;;;5083500;28;20059;-81
2022/01/07 07:38:39;;;;;;;12.63;9.80;;;3.40;99.90;;;;;;5121705;27;20635;-81
2022/01/07 07:41:08;;;;;;;13.30;9.53;;;3.40;99.90;;;;;;5092303;27;20039;-80
2022/01/07 07:43:35;;;;;;;15.60;10.17;;;3.40;99.90;;;;;;5120647;27;20066;-81
2022/01/07 07:46:01;;;;;;;17.03;10.70;;;3.40;99.90;;;;;;5117762;27;20103;-80
2022/01/07 07:48:27;;;;;;;16.43;11.50;;;3.30;99.90;;;;;;5100957;27;20035;-80
2022/01/07 07:50:53;;;;;;;16.97;11.53;;;3.40;99.90;;;;;;5116744;27;20471;-81
2022/01/07 07:53:18;;;;;;;17.77;11.93;;;3.40;99.90;;;;;;5082901;27;20067;-81
2022/01/07 07:55:53;;;;;;;17.67;11.73;;;3.50;99.90;;;;;;5114495;27;20039;-80
2022/01/07 07:58:23;;;;;;;16.73;12.13;;;3.40;99.90;;;;;;5090880;27;20043;-80
2022/01/07 08:00:50;;;;;;;16.77;11.53;;;3.40;99.90;;;;;;5114457;27;20040;-81
2022/01/07 08:03:17;;;;;;;18.73;12.93;;;3.40;99.90;;;;;;5101476;27;20031;-81
2022/01/07 08:05:43;;;;;;;17.57;12.57;;;3.40;99.90;;;;;;5103499;27;20046;-80
2022/01/07 08:08:09;;;;;;;20.33;12.70;;;3.50;99.90;;;;;;5114615;27;20047;-80
2022/01/07 08:10:35;;;;;;;21.90;13.63;;;3.50;99.90;;;;;;5096831;27;20080;-80
2022/01/07 08:18:20;;;;;;;21.20;13.03;;;3.60;99.90;;;;;;5118016;27;20047;-76
2022/01/07 08:20:46;;;;;;;20.50;13.37;;;3.60;99.90;;;;;;5099058;27;20059;-79
2022/01/07 08:23:12;;;;;;;21.20;14.10;;;3.60;99.90;;;;;;5081212;27;20062;-79
2022/01/07 08:25:38;;;;;;;23.37;14.43;;;3.60;99.90;;;;;;5079694;27;20096;-81
2022/01/07 08:28:05;;;;;;;25.33;13.43;;;3.70;99.90;;;;;;5118351;27;20070;-80
2022/01/07 08:30:37;;;;;;;23.87;14.67;;;3.70;99.90;;;;;;5065277;27;20129;-80
2022/01/07 08:35:49;;;;;;;25.43;14.73;;;3.70;99.90;;;;;;5131441;27;20041;-81
2022/01/07 08:38:15;;;;;;;22.93;14.33;;;3.70;99.90;;;;;;5077019;27;20143;-81
2022/01/07 08:40:41;;;;;;;27.43;15.20;;;3.70;99.90;;;;;;5098455;27;20073;-81
2022/01/07 08:43:08;;;;;;;25.00;14.70;;;3.80;99.90;;;;;;5099670;27;20040;-81
2022/01/07 08:45:34;;;;;;;26.40;15.37;;;3.80;99.90;;;;;;5078863;27;20047;-80
2022/01/07 08:48:00;;;;;;;24.40;15.57;;;3.80;99.90;;;;;;5091529;27;20132;-81
2022/01/07 08:50:26;;;;;;;26.20;15.10;;;3.80;99.90;;;;;;5127865;27;20043;-77
2022/01/07 08:52:53;;;;;;;30.37;16.40;;;3.90;99.90;;;;;;5095078;27;20126;-78
2022/01/07 08:55:19;;;;;;;30.40;15.83;;;3.90;99.90;;;;;;5094078;27;20111;-78
2022/01/07 08:57:45;;;;;;;28.27;16.30;;;3.90;99.90;;;;;;5098260;27;20071;-78
2022/01/07 09:00:12;;;;;;;26.30;15.70;;;3.90;99.90;;;;;;5075364;27;20050;-78
2022/01/07 09:02:38;;;;;;;28.03;17.37;;;4.00;99.90;;;;;;5112734;27;20058;-77
2022/01/07 09:05:04;;;;;;;28.57;16.47;;;4.00;99.90;;;;;;5060168;27;20047;-78
2022/01/07 09:07:30;;;;;;;33.53;18.27;;;4.10;99.90;;;;;;5080849;27;20039;-78
2022/01/07 09:09:55;;;;;;;31.27;17.90;;;4.10;99.90;;;;;;5114190;27;20062;-78
2022/01/07 09:12:21;;;;;;;29.73;16.67;;;4.20;99.90;;;;;;5128051;27;20530;-77
2022/01/07 09:14:47;;;;;;;31.87;17.97;;;4.20;99.90;;;;;;5097737;27;20041;-78
2022/01/07 09:17:13;;;;;;;36.07;17.73;;;4.20;99.90;;;;;;5099032;27;20044;-78
2022/01/07 09:19:39;;;;;;;29.30;17.17;;;4.30;99.90;;;;;;5095947;27;20050;-78
2022/01/07 09:22:05;;;;;;;32.30;17.63;;;4.40;99.90;;;;;;5098086;27;20441;-78
2022/01/07 09:24:31;;;;;;;32.47;16.90;;;4.40;99.90;;;;;;5082175;27;20043;-78
2022/01/07 09:26:58;;;;;;;28.63;17.50;;;4.50;99.90;;;;;;5098459;27;20037;-78
2022/01/07 09:29:24;;;;;;;31.17;17.57;;;4.50;99.90;;;;;;5080338;27;20584;-78
2022/01/07 09:31:54;;;;;;;27.03;17.20;;;4.50;99.90;;;;;;5097446;27;20047;-78
2022/01/07 09:34:20;;;;;;;33.07;17.90;;;4.50;99.90;;;;;;5097270;27;20134;-78
2022/01/07 09:36:46;;;;;;;39.00;18.60;;;4.60;99.90;;;;;;5076703;28;20040;-79
2022/01/07 09:39:12;;;;;;;32.20;17.53;;;4.60;99.90;;;;;;5076804;28;20045;-78
2022/01/07 09:41:38;;;;;;;30.13;17.10;;;4.60;99.90;;;;;;5106957;28;20403;-78
2022/01/07 09:44:09;;;;;;;34.43;17.73;;;4.60;99.90;;;;;;5111194;28;20043;-78
2022/01/07 09:46:35;;;;;;;34.93;17.57;;;4.70;99.90;;;;;;5093559;28;20055;-79
2022/01/07 09:49:04;;;;;;;30.87;17.93;;;4.70;99.90;;;;;;5085843;28;20043;-78
2022/01/07 09:51:30;;;;;;;29.77;17.27;;;4.80;99.90;;;;;;5085261;28;20758;-79
2022/01/07 09:53:56;;;;;;;31.00;17.30;;;4.80;99.90;;;;;;5087220;28;20044;-78
2022/01/07 09:56:21;;;;;;;27.43;17.40;;;4.80;99.90;;;;;;5091821;28;20040;-78
2022/01/07 09:58:47;;;;;;;29.60;17.43;;;4.80;99.90;;;;;;5076706;28;20047;-78
2022/01/07 10:01:19;;;;;;;35.50;20.13;;;4.80;99.90;;;;;;5072857;28;20062;-79
2022/01/07 10:03:45;;;;;;;;;;;4.80;99.90;;;;;;5091904;28;20044;-79
2022/01/07 10:06:18;;;;;;;32.00;18.73;;;4.80;99.90;;;;;;5087881;28;19924;-78
2022/01/07 10:08:46;;;;;;;31.63;17.67;;;4.90;99.90;;;;;;5090386;28;20066;-78
2022/01/07 10:11:20;;;;;;;33.70;17.23;;;4.90;99.90;;;;;;5090260;28;20176;-79
2022/01/07 10:14:10;;;;;;;33.90;18.67;;;4.90;99.90;;;;;;5090925;28;20044;-79
2022/01/07 10:16:51;;;;;;;31.87;17.63;;;4.90;99.90;;;;;;5091731;28;20043;-81
2022/01/07 10:19:33;;;;;;;31.53;17.80;;;4.90;99.90;;;;;;5094404;28;20145;-79
2022/01/07 10:22:11;;;;;;;35.35;18.42;;;4.90;99.90;;;;;;5083644;28;20054;-80
2022/01/07 10:25:00;;;;;;;27.17;17.33;;;4.90;99.90;;;;;;5087438;28;20031;-80
2022/01/07 10:27:33;;;;;;;25.93;14.50;;;4.90;99.90;;;;;;5090134;28;20044;-80
2022/01/07 10:29:58;;;;;;;22.37;12.13;;;4.90;99.90;;;;;;5084131;28;20083;-80
2022/01/07 10:32:32;;;;;;;26.10;13.67;;;4.90;99.90;;;;;;5086991;28;20044;-80
2022/01/07 10:35:09;;;;;;;22.00;12.73;;;4.90;99.90;;;;;;5073293;28;20070;-81
2022/01/07 10:37:46;;;;;;;19.40;10.57;;;5.00;99.90;;;;;;5076908;28;20052;-80
2022/01/07 10:40:23;;;;;;;16.10;10.87;;;5.00;99.90;;;;;;5072060;28;20055;-81
2022/01/07 10:42:50;;;;;;;17.20;10.80;;;5.00;99.90;;;;;;5070697;28;20052;-80
2022/01/07 10:45:17;;;;;;;17.80;10.23;;;5.00;99.90;;;;;;5089117;28;20893;-83
2022/01/07 10:47:48;;;;;;;14.53;9.00;;;5.00;99.90;;;;;;5069229;28;20070;-77
2022/01/07 10:50:20;;;;;;;16.47;8.40;;;4.90;99.90;;;;;;5069522;28;20082;-78
2022/01/07 10:52:46;;;;;;;;;;;4.90;99.90;;;;;;5093679;28;20048;-78
2022/01/07 10:55:14;;;;;;;10.33;7.07;;;4.80;99.90;;;;;;5069435;28;19927;-78
2022/01/07 10:57:44;;;;;;;12.37;7.67;;;4.80;99.90;;;;;;5070311;28;20129;-81
2022/01/07 11:00:21;;;;;;;16.57;8.90;;;4.80;99.90;;;;;;5086047;28;20044;-80
2022/01/07 11:02:47;;;;;;;19.07;10.60;;;4.80;99.90;;;;;;5053101;28;20051;-79
2022/01/07 11:05:14;;;;;;;20.40;10.60;;;4.80;99.90;;;;;;5086967;28;20056;-80
2022/01/07 11:07:40;;;;;;;18.07;9.60;;;4.80;99.90;;;;;;5052842;28;20044;-79
2022/01/07 11:10:08;;;;;;;18.37;9.83;;;4.80;99.90;;;;;;5086558;28;20471;-80
2022/01/07 11:12:34;;;;;;;16.40;9.30;;;4.90;99.90;;;;;;5085437;28;20048;-80
2022/01/07 11:15:02;;;;;;;17.60;9.10;;;5.00;99.90;;;;;;5053242;28;20040;-80
2022/01/07 11:17:30;;;;;;;18.53;8.57;;;5.00;99.90;;;;;;5085709;28;20040;-80
2022/01/07 11:19:59;;;;;;;16.93;7.60;;;5.10;99.90;;;;;;5070241;28;20050;-79
2022/01/07 11:22:26;;;;;;;9.83;6.63;;;5.10;99.90;;;;;;5068827;28;20104;-79
2022/01/07 11:25:13;;;;;;;13.33;6.67;;;5.10;99.90;;;;;;5054622;28;20131;-80
2022/01/07 11:27:52;;;;;;;15.63;6.93;;;5.10;99.90;;;;;;5073407;28;20043;-80
2022/01/07 11:30:28;;;;;;;12.47;6.57;;;5.20;99.90;;;;;;5072551;28;20055;-80
2022/01/07 11:32:55;;;;;;;11.93;5.80;;;5.10;99.90;;;;;;5090018;28;20048;-80
2022/01/07 11:35:21;;;;;;;14.00;6.90;;;5.20;99.90;;;;;;5073230;28;20103;-80
2022/01/07 11:37:58;;;;;;;15.63;7.87;;;5.30;99.90;;;;;;5082044;28;20084;-80
2022/01/07 11:40:33;;;;;;;15.07;8.57;;;5.30;99.90;;;;;;5088887;28;20044;-80
2022/01/07 11:43:17;;;;;;;15.43;8.30;;;5.40;99.90;;;;;;5091604;28;20050;-80
2022/01/07 11:45:44;;;;;;;16.23;10.00;;;5.40;99.90;;;;;;5091728;28;20054;-79
2022/01/07 11:48:17;;;;;;;17.03;10.87;;;5.30;99.90;;;;;;5089109;28;20047;-78
2022/01/07 11:50:54;;;;;;;;;;;5.30;99.90;;;;;;5087460;28;20040;-78
2022/01/07 11:53:21;;;;;;;21.03;11.43;;;5.30;99.90;;;;;;5090858;28;19928;-79
2022/01/07 11:55:49;;;;;;;20.90;11.33;;;5.20;99.90;;;;;;5071103;28;20037;-78
2022/01/07 11:58:16;;;;;;;22.03;12.43;;;5.20;99.90;;;;;;5099434;28;20052;-78
2022/01/07 12:00:56;;;;;;;19.17;12.80;;;5.10;99.90;;;;;;5073662;28;20101;-78
2022/01/07 12:03:42;;;;;;;21.77;12.80;;;5.10;99.90;;;;;;5099384;28;20452;-77
2022/01/07 12:06:17;;;;;;;22.90;13.13;;;5.10;99.90;;;;;;5106156;27;20063;-78
2022/01/07 12:08:58;;;;;;;26.87;13.70;;;5.10;99.90;;;;;;5088987;28;20060;-78
2022/01/07 12:11:34;;;;;;;23.03;13.47;;;5.10;99.90;;;;;;5083806;28;20450;-78
2022/01/07 12:14:01;;;;;;;21.03;12.80;;;5.10;99.90;;;;;;5089232;28;20047;-77
2022/01/07 12:16:32;;;;;;;20.50;11.93;;;5.20;99.90;;;;;;5104745;28;20098;-78
2022/01/07 12:19:17;;;;;;;20.53;11.47;;;5.20;99.90;;;;;;5084242;28;20051;-78
2022/01/07 12:21:51;;;;;;;19.93;10.43;;;5.30;99.90;;;;;;5085464;28;20181;-78
2022/01/07 12:24:21;;;;;;;17.37;9.57;;;5.30;99.90;;;;;;5081582;28;20055;-77
2022/01/07 12:27:00;;;;;;;14.67;9.50;;;5.30;99.90;;;;;;5085970;28;20081;-80
2022/01/07 12:29:30;;;;;;;13.90;8.10;;;5.40;99.90;;;;;;5074783;28;20666;-78
2022/01/07 12:31:56;;;;;;;14.67;8.23;;;5.50;99.90;;;;;;5102193;28;20047;-79
2022/01/07 12:34:30;;;;;;;11.83;7.23;;;5.60;99.90;;;;;;5072900;28;20055;-78
2022/01/07 12:37:05;;;;;;;8.97;5.10;;;5.70;99.90;;;;;;5085031;28;20542;-78
2022/01/07 12:39:37;;;;;;;9.37;4.20;;;5.80;99.90;;;;;;5083380;28;20482;-78
2022/01/07 12:42:04;;;;;;;7.85;3.47;;;5.80;99.90;;;;;;5082839;28;20403;-78
2022/01/07 12:44:39;;;;;;;6.57;2.83;;;5.80;99.90;;;;;;5072790;28;20055;-78
2022/01/07 12:47:07;;;;;;;7.97;3.03;;;5.80;99.90;;;;;;5078458;28;20123;-78
2022/01/07 12:49:37;;;;;;;6.13;2.30;;;5.70;99.90;;;;;;5075348;28;20073;-78
2022/01/07 12:52:05;;;;;;;7.87;2.57;;;5.60;99.90;;;;;;5077630;28;20090;-77
2022/01/07 12:54:32;;;;;;;10.53;2.60;;;5.60;99.90;;;;;;5102046;28;20070;-78
2022/01/07 12:56:57;;;;;;;7.70;2.30;;;5.60;99.90;;;;;;5082735;28;20107;-78
2022/01/07 12:59:26;;;;;;;6.07;1.77;;;5.70;99.90;;;;;;5056592;28;20059;-77